Time;durP1;ratioP1;P1;durP2;ratioP2;P2;SDS_P1;SDS_P2;PMS_P1;PMS_P2;Temp;Humidity;BMP_temperature;BMP_pressure;BME280_temperature;BME280_humidity;BME280_pressure;Samples;Min_cycle;Max_cycle;Signal;HPM_P1;HPM_P2
2023/11/23 00:01:44;;;;;;;17.77;8.33;;;6.70;77.80;;;;;;779749;184;26444;-87
2023/11/23 00:04:11;;;;;;;11.00;7.33;;;6.80;79.00;;;;;;781164;180;26503;-87
2023/11/23 00:06:37;;;;;;;12.80;7.63;;;6.80;78.00;;;;;;784156;183;26453;-88
2023/11/23 00:09:06;;;;;;;15.60;8.73;;;6.80;78.70;;;;;;784778;183;26462;-85
2023/11/23 00:11:31;;;;;;;15.40;7.80;;;6.80;78.40;;;;;;782317;177;26440;-85
2023/11/23 00:13:57;;;;;;;13.57;7.70;;;6.80;78.90;;;;;;767869;184;26483;-85
2023/11/23 00:16:24;;;;;;;12.67;7.77;;;6.80;78.30;;;;;;762106;184;26582;-85
2023/11/23 00:18:50;;;;;;;14.83;8.50;;;6.90;78.70;;;;;;770308;184;26483;-86
2023/11/23 00:21:17;;;;;;;11.23;7.63;;;6.90;78.60;;;;;;774861;182;26435;-86
2023/11/23 00:23:46;;;;;;;13.30;7.47;;;6.90;78.50;;;;;;780387;182;26461;-86
2023/11/23 00:26:13;;;;;;;14.40;7.73;;;6.90;78.70;;;;;;780565;182;26479;-86
2023/11/23 00:28:40;;;;;;;16.93;8.30;;;6.90;79.80;;;;;;780701;180;26423;-86
2023/11/23 00:31:06;;;;;;;13.10;8.37;;;6.90;78.50;;;;;;766933;180;26484;-86
2023/11/23 00:33:34;;;;;;;12.83;8.33;;;6.90;79.60;;;;;;772724;183;26510;-86
2023/11/23 00:36:04;;;;;;;11.73;7.80;;;7.00;79.20;;;;;;775478;183;26463;-86
2023/11/23 00:38:27;;;;;;;13.93;9.10;;;7.10;79.80;;;;;;783200;182;26446;-85
2023/11/23 00:40:53;;;;;;;11.93;7.30;;;7.10;79.20;;;;;;766052;184;26475;-86
2023/11/23 00:43:20;;;;;;;12.67;7.57;;;7.10;79.20;;;;;;769498;185;26540;-86
2023/11/23 00:45:47;;;;;;;15.73;8.60;;;7.20;80.10;;;;;;779199;183;26475;-86
2023/11/23 00:48:13;;;;;;;14.50;7.80;;;7.20;79.60;;;;;;768700;183;26775;-85
2023/11/23 00:50:40;;;;;;;13.70;8.47;;;7.20;79.30;;;;;;760977;188;26492;-86
2023/11/23 00:53:06;;;;;;;13.07;7.73;;;7.30;80.00;;;;;;761024;187;26500;-86
2023/11/23 00:55:33;;;;;;;13.27;7.63;;;7.30;80.50;;;;;;773160;184;26451;-86
2023/11/23 00:57:59;;;;;;;11.80;8.20;;;7.30;80.00;;;;;;776209;183;26980;-86
2023/11/23 01:00:28;;;;;;;12.30;7.87;;;7.40;80.60;;;;;;780570;180;26483;-86
2023/11/23 01:02:53;;;;;;;15.30;8.43;;;7.40;80.30;;;;;;780147;184;26444;-86
2023/11/23 01:05:19;;;;;;;15.80;8.33;;;7.40;81.70;;;;;;779024;183;26454;-86
2023/11/23 01:07:46;;;;;;;13.80;7.70;;;7.50;82.20;;;;;;779259;184;26442;-85
2023/11/23 01:10:13;;;;;;;12.90;8.10;;;7.50;82.10;;;;;;780944;184;26442;-86
2023/11/23 01:12:40;;;;;;;16.80;8.27;;;7.60;81.60;;;;;;780496;182;26491;-85
2023/11/23 01:15:07;;;;;;;13.67;7.90;;;7.60;80.70;;;;;;783556;181;26429;-86
2023/11/23 01:17:34;;;;;;;17.03;9.90;;;7.60;82.40;;;;;;782275;183;27127;-86
2023/11/23 01:20:00;;;;;;;16.10;8.87;;;7.60;82.20;;;;;;783913;183;26442;-86
2023/11/23 01:22:33;;;;;;;13.47;7.83;;;7.70;82.40;;;;;;782288;179;26438;-86
2023/11/23 01:24:59;;;;;;;16.30;8.27;;;7.70;82.00;;;;;;783536;183;26429;-85
2023/11/23 01:27:26;;;;;;;11.93;7.70;;;7.60;81.00;;;;;;781928;183;26575;-86
2023/11/23 01:29:53;;;;;;;14.00;8.03;;;7.60;81.90;;;;;;778923;182;27089;-86
2023/11/23 01:32:19;;;;;;;12.93;7.67;;;7.70;83.40;;;;;;780944;180;26443;-85
2023/11/23 01:34:46;;;;;;;10.73;7.60;;;7.70;83.50;;;;;;779683;183;26469;-86
2023/11/23 01:37:12;;;;;;;11.90;7.53;;;7.70;83.10;;;;;;780854;183;26450;-85
2023/11/23 01:39:39;;;;;;;12.37;7.53;;;7.80;83.80;;;;;;779963;183;26477;-86
2023/11/23 01:42:06;;;;;;;13.83;8.27;;;7.80;84.00;;;;;;779502;185;26488;-86
2023/11/23 01:44:32;;;;;;;11.03;7.17;;;7.70;85.80;;;;;;779112;185;26490;-86
2023/11/23 01:46:59;;;;;;;13.53;8.77;;;7.70;85.00;;;;;;781283;183;27061;-86
2023/11/23 01:49:25;;;;;;;12.87;8.00;;;7.70;85.50;;;;;;779711;183;26455;-86
2023/11/23 01:51:52;;;;;;;14.67;7.80;;;7.70;86.90;;;;;;777125;184;26448;-86
2023/11/23 01:54:19;;;;;;;14.37;8.93;;;7.70;87.30;;;;;;780616;182;26452;-86
2023/11/23 01:56:47;;;;;;;16.43;8.90;;;7.80;88.70;;;;;;783312;183;26458;-86
2023/11/23 01:59:12;;;;;;;16.97;9.47;;;7.70;89.10;;;;;;776213;181;27177;-86
2023/11/23 02:01:38;;;;;;;15.00;9.63;;;7.70;90.40;;;;;;777500;184;26439;-86
2023/11/23 02:04:05;;;;;;;99.20;54.77;;;7.60;90.80;;;;;;780227;183;26424;-86
2023/11/23 02:06:32;;;;;;;206.20;92.53;;;7.50;91.50;;;;;;781490;184;26458;-85
2023/11/23 02:08:58;;;;;;;70.07;35.13;;;7.50;91.70;;;;;;780042;185;26435;-86
2023/11/23 02:11:25;;;;;;;77.70;42.63;;;7.50;92.40;;;;;;780121;181;26439;-86
2023/11/23 02:13:51;;;;;;;23.03;13.50;;;7.50;92.30;;;;;;776625;183;26444;-85
2023/11/23 02:16:18;;;;;;;30.57;17.10;;;7.60;92.50;;;;;;757919;184;26457;-85
2023/11/23 02:18:45;;;;;;;18.67;11.63;;;7.60;92.70;;;;;;774921;184;26436;-86
2023/11/23 02:21:11;;;;;;;61.37;30.73;;;7.60;92.90;;;;;;778800;181;27040;-85
2023/11/23 02:23:38;;;;;;;30.27;17.10;;;7.70;93.10;;;;;;763860;180;26487;-85
2023/11/23 02:26:05;;;;;;;23.00;14.30;;;7.70;93.20;;;;;;764277;186;27058;-86
2023/11/23 02:28:31;;;;;;;18.83;11.53;;;7.80;93.50;;;;;;754473;185;27059;-85
2023/11/23 02:30:58;;;;;;;18.70;11.77;;;7.80;93.30;;;;;;746982;188;26583;-85
2023/11/23 02:33:24;;;;;;;18.30;11.40;;;7.90;93.50;;;;;;757637;187;27109;-85
2023/11/23 02:35:51;;;;;;;21.57;11.27;;;7.90;93.50;;;;;;762524;187;26517;-85
2023/11/23 02:38:18;;;;;;;24.33;12.77;;;7.90;93.80;;;;;;779763;183;27002;-85
2023/11/23 02:40:44;;;;;;;23.13;12.70;;;7.90;94.00;;;;;;785138;183;26398;-86
2023/11/23 02:43:11;;;;;;;22.47;11.90;;;7.90;94.60;;;;;;763251;187;26437;-85
2023/11/23 02:45:37;;;;;;;20.00;12.43;;;7.90;94.50;;;;;;769481;184;26422;-86
2023/11/23 02:48:04;;;;;;;19.90;12.57;;;7.80;94.50;;;;;;768983;183;26442;-85
2023/11/23 02:50:31;;;;;;;21.83;13.10;;;7.90;94.60;;;;;;763213;187;26490;-86
2023/11/23 02:52:58;;;;;;;19.83;12.80;;;7.90;94.60;;;;;;781431;182;26500;-86
2023/11/23 02:55:24;;;;;;;21.70;14.43;;;7.90;94.80;;;;;;781647;183;26466;-86
2023/11/23 02:57:50;;;;;;;20.50;13.03;;;7.90;94.80;;;;;;771611;178;26473;-86
2023/11/23 03:00:17;;;;;;;21.10;13.53;;;8.00;95.00;;;;;;763799;180;26502;-86
2023/11/23 03:02:44;;;;;;;20.83;13.90;;;8.00;95.00;;;;;;779979;183;27066;-86
2023/11/23 03:05:10;;;;;;;21.17;13.07;;;8.00;94.90;;;;;;768301;184;26488;-86
2023/11/23 03:07:37;;;;;;;19.37;12.60;;;8.00;94.90;;;;;;765725;184;26519;-86
2023/11/23 03:10:04;;;;;;;22.57;13.77;;;8.10;94.90;;;;;;772957;183;27023;-86
2023/11/23 03:12:30;;;;;;;22.07;13.93;;;8.10;94.90;;;;;;777199;183;26440;-86
2023/11/23 03:14:57;;;;;;;23.00;13.57;;;8.10;94.70;;;;;;768949;184;26497;-86
2023/11/23 03:17:23;;;;;;;20.30;12.97;;;8.10;94.60;;;;;;768023;185;26495;-86
2023/11/23 03:19:50;;;;;;;20.47;12.97;;;8.10;94.70;;;;;;763993;185;26467;-86
2023/11/23 03:22:17;;;;;;;15.53;11.43;;;8.20;94.50;;;;;;771505;183;26451;-86
2023/11/23 03:24:43;;;;;;;18.90;11.83;;;8.20;94.40;;;;;;769795;183;26500;-86
2023/11/23 03:27:10;;;;;;;20.03;11.87;;;8.30;94.40;;;;;;773203;183;26455;-86
2023/11/23 03:29:36;;;;;;;22.33;13.53;;;8.30;94.10;;;;;;759448;187;26492;-86
2023/11/23 03:32:03;;;;;;;18.93;12.97;;;8.30;94.00;;;;;;758569;187;27135;-86
2023/11/23 03:34:30;;;;;;;19.70;12.53;;;8.30;94.20;;;;;;777825;183;27010;-85
2023/11/23 03:36:56;;;;;;;19.73;13.30;;;8.40;94.20;;;;;;757397;186;26456;-86
2023/11/23 03:39:23;;;;;;;18.50;12.87;;;8.40;94.00;;;;;;758447;186;27126;-86
2023/11/23 03:41:50;;;;;;;17.83;11.37;;;8.40;93.90;;;;;;779230;179;26435;-85
2023/11/23 03:44:16;;;;;;;17.47;11.90;;;8.40;93.80;;;;;;773382;183;27012;-86
2023/11/23 03:46:43;;;;;;;16.40;11.47;;;8.40;93.90;;;;;;774538;183;26429;-86
2023/11/23 03:49:09;;;;;;;20.53;12.10;;;8.50;93.80;;;;;;762766;186;27555;-86
2023/11/23 03:51:36;;;;;;;19.57;12.10;;;8.60;93.80;;;;;;760941;187;26532;-86
2023/11/23 03:54:03;;;;;;;17.23;11.93;;;8.60;93.60;;;;;;760477;187;27062;-86
2023/11/23 03:56:31;;;;;;;19.97;12.47;;;8.60;93.60;;;;;;784321;180;26521;-86
2023/11/23 03:59:01;;;;;;;18.50;12.63;;;8.60;93.50;;;;;;791320;177;26460;-86
2023/11/23 04:01:28;;;;;;;18.17;12.17;;;8.60;93.50;;;;;;783333;179;26501;-87
2023/11/23 04:03:59;;;;;;;16.83;11.33;;;8.70;93.40;;;;;;777040;182;26469;-86
2023/11/23 04:06:34;;;;;;;16.70;11.87;;;8.60;93.50;;;;;;785958;182;26471;-91
2023/11/23 04:09:10;;;;;;;16.80;12.20;;;8.70;93.70;;;;;;793480;178;26533;-87
2023/11/23 04:11:40;;;;;;;16.67;11.90;;;8.70;93.50;;;;;;779329;182;26476;-90
2023/11/23 04:14:08;;;;;;;16.93;12.53;;;8.70;93.50;;;;;;781697;178;26622;-85
2023/11/23 04:16:47;;;;;;;18.40;13.00;;;8.70;93.40;;;;;;790814;178;26461;-85
2023/11/23 04:19:16;;;;;;;16.67;12.40;;;8.80;93.40;;;;;;794661;180;26435;-88
2023/11/23 04:21:48;;;;;;;17.53;13.00;;;8.80;93.40;;;;;;790529;180;26441;-86
2023/11/23 04:24:18;;;;;;;20.20;13.43;;;8.80;93.50;;;;;;793089;179;26994;-87
2023/11/23 04:26:47;;;;;;;16.90;12.90;;;8.80;93.60;;;;;;789191;180;26817;-87
2023/11/23 04:29:14;;;;;;;17.17;12.80;;;8.90;93.60;;;;;;790983;180;26480;-84
2023/11/23 04:31:46;;;;;;;20.40;14.37;;;8.90;93.60;;;;;;786631;180;26972;-85
2023/11/23 04:34:21;;;;;;;19.40;12.03;;;8.90;93.60;;;;;;783639;178;26510;-85
2023/11/23 04:36:49;;;;;;;21.80;13.90;;;8.90;93.50;;;;;;782576;178;27024;-84
2023/11/23 04:39:19;;;;;;;24.03;13.97;;;9.00;93.60;;;;;;783322;179;27052;-87
2023/11/23 04:41:49;;;;;;;19.40;14.27;;;8.90;93.40;;;;;;780018;183;26429;-86
2023/11/23 04:44:19;;;;;;;21.63;13.57;;;9.00;93.60;;;;;;795516;177;26515;-86
2023/11/23 04:46:51;;;;;;;21.00;14.10;;;9.00;93.40;;;;;;793234;178;26465;-86
2023/11/23 04:49:20;;;;;;;20.53;14.23;;;9.00;93.40;;;;;;793847;178;26454;-87
2023/11/23 04:51:48;;;;;;;20.00;13.70;;;9.00;93.40;;;;;;796645;177;26474;-87
2023/11/23 04:54:18;;;;;;;20.27;14.60;;;9.10;93.40;;;;;;796953;177;26445;-86
2023/11/23 04:56:50;;;;;;;20.47;13.43;;;9.00;93.30;;;;;;795882;177;26480;-85
2023/11/23 04:59:18;;;;;;;21.23;13.70;;;9.10;93.40;;;;;;796466;177;26439;-85
2023/11/23 05:01:47;;;;;;;21.60;14.03;;;9.00;93.30;;;;;;791962;178;26496;-85
2023/11/23 05:04:14;;;;;;;24.90;15.20;;;9.10;93.40;;;;;;795085;176;26449;-86
2023/11/23 05:06:51;;;;;;;21.07;14.60;;;9.10;93.30;;;;;;791411;177;26485;-86
2023/11/23 05:09:18;;;;;;;23.47;14.27;;;9.10;93.50;;;;;;782276;180;26461;-85
2023/11/23 05:11:48;;;;;;;22.20;13.57;;;9.10;93.40;;;;;;791584;179;26479;-85
2023/11/23 05:14:15;;;;;;;20.50;14.50;;;9.10;93.40;;;;;;794580;179;26434;-85
2023/11/23 05:16:42;;;;;;;21.10;15.37;;;9.10;93.40;;;;;;793138;175;26489;-85
2023/11/23 05:19:12;;;;;;;23.27;14.83;;;9.10;93.50;;;;;;793086;177;26475;-88
2023/11/23 05:21:40;;;;;;;22.30;15.47;;;9.10;93.40;;;;;;797212;179;27123;-88
2023/11/23 05:24:11;;;;;;;29.07;16.37;;;9.10;93.50;;;;;;792154;176;26441;-86
2023/11/23 05:26:39;;;;;;;24.90;15.73;;;9.20;93.50;;;;;;792473;178;26462;-84
2023/11/23 05:29:07;;;;;;;20.97;14.43;;;9.10;93.50;;;;;;792640;178;27007;-85
2023/11/23 05:31:38;;;;;;;20.23;15.10;;;9.20;93.50;;;;;;791969;175;26446;-85
2023/11/23 05:34:09;;;;;;;21.33;14.47;;;9.20;93.50;;;;;;792138;180;26445;-86
2023/11/23 05:36:36;;;;;;;20.50;15.20;;;9.20;93.30;;;;;;791474;178;27273;-88
2023/11/23 05:39:11;;;;;;;22.60;15.67;;;9.20;93.40;;;;;;793151;178;26445;-85
2023/11/23 05:41:36;;;;;;;20.00;13.33;;;9.20;93.50;;;;;;794362;179;27004;-85
2023/11/23 05:44:11;;;;;;;23.00;15.57;;;9.20;93.50;;;;;;794645;179;26475;-87
2023/11/23 05:52:20;;;;;;;20.67;14.60;;;9.30;93.50;;;;;;733118;174;26543;-89
2023/11/23 05:54:48;;;;;;;22.53;15.37;;;9.20;93.40;;;;;;804165;177;26516;-85
2023/11/23 05:57:18;;;;;;;22.17;15.60;;;9.30;93.50;;;;;;798804;176;26562;-85
2023/11/23 05:59:45;;;;;;;21.60;14.60;;;9.30;93.60;;;;;;794512;177;26467;-89
2023/11/23 06:02:12;;;;;;;24.00;16.00;;;9.30;93.50;;;;;;796516;178;27047;-86
2023/11/23 06:04:40;;;;;;;21.30;16.20;;;9.30;93.50;;;;;;796482;177;26474;-86
2023/11/23 06:07:10;;;;;;;21.73;16.53;;;9.30;93.50;;;;;;795936;178;26521;-87
2023/11/23 06:09:38;;;;;;;25.07;16.03;;;9.30;93.50;;;;;;796600;179;26451;-85
2023/11/23 06:12:08;;;;;;;21.87;14.97;;;9.40;93.70;;;;;;795263;179;26441;-85
2023/11/23 06:14:37;;;;;;;21.03;15.23;;;9.40;93.60;;;;;;797295;177;26501;-90
2023/11/23 06:17:10;;;;;;;25.37;16.83;;;9.40;93.50;;;;;;798000;176;26489;-87
2023/11/23 06:19:39;;;;;;;23.17;15.80;;;9.40;93.50;;;;;;798554;174;26447;-91
2023/11/23 06:22:14;;;;;;;23.63;16.17;;;9.40;93.60;;;;;;798626;172;26441;-91
2023/11/23 06:24:44;;;;;;;21.53;15.00;;;9.40;93.60;;;;;;796002;176;26523;-87
2023/11/23 06:27:12;;;;;;;21.93;16.80;;;9.40;93.60;;;;;;794074;179;26478;-87
2023/11/23 06:29:45;;;;;;;25.23;17.20;;;9.40;93.50;;;;;;793937;179;26495;-88
2023/11/23 06:32:23;;;;;;;22.73;17.80;;;9.40;93.50;;;;;;794673;179;26474;-86
2023/11/23 06:34:59;;;;;;;21.27;17.63;;;9.40;93.50;;;;;;796599;179;26993;-86
2023/11/23 06:37:29;;;;;;;26.43;17.20;;;9.50;93.50;;;;;;789692;174;26576;-90
2023/11/23 06:40:13;;;;;;;23.97;15.67;;;9.50;93.60;;;;;;785354;180;27006;-86
2023/11/23 06:42:41;;;;;;;22.33;17.13;;;9.50;93.60;;;;;;789881;180;26491;-85
2023/11/23 06:45:14;;;;;;;25.87;18.07;;;9.50;93.70;;;;;;783220;182;26460;-86
2023/11/23 06:47:38;;;;;;;23.60;16.40;;;9.50;93.60;;;;;;795535;180;26494;-89
2023/11/23 06:50:07;;;;;;;26.57;17.20;;;9.50;93.60;;;;;;795554;175;26427;-86
2023/11/23 06:52:36;;;;;;;23.37;16.90;;;9.50;93.50;;;;;;794680;177;27005;-86
2023/11/23 06:55:06;;;;;;;27.30;16.87;;;9.60;93.50;;;;;;794717;180;26495;-85
2023/11/23 06:57:33;;;;;;;21.73;16.37;;;9.60;93.60;;;;;;781668;175;26577;-83
2023/11/23 07:00:10;;;;;;;24.70;17.10;;;9.60;93.60;;;;;;763350;186;26527;-83
2023/11/23 07:02:37;;;;;;;25.17;16.93;;;9.60;93.50;;;;;;763967;187;26505;-86
2023/11/23 07:05:07;;;;;;;24.70;16.70;;;9.60;93.50;;;;;;755639;187;27063;-84
2023/11/23 07:07:39;;;;;;;20.60;15.70;;;9.60;93.40;;;;;;740985;181;26560;-83
2023/11/23 07:10:08;;;;;;;24.03;15.43;;;9.70;93.40;;;;;;737622;193;26547;-85
2023/11/23 07:12:39;;;;;;;23.93;15.10;;;9.70;93.40;;;;;;741755;192;26527;-86
2023/11/23 07:15:11;;;;;;;24.00;16.20;;;9.70;93.50;;;;;;743257;191;26688;-85
2023/11/23 07:17:44;;;;;;;21.90;16.27;;;9.70;93.40;;;;;;737861;192;27107;-85
2023/11/23 07:20:11;;;;;;;21.83;16.50;;;9.80;93.40;;;;;;769023;180;27069;-87
2023/11/23 07:22:37;;;;;;;23.60;16.77;;;9.70;93.40;;;;;;778906;182;26454;-88
2023/11/23 07:25:04;;;;;;;26.00;17.37;;;9.80;93.40;;;;;;779196;182;27009;-88
2023/11/23 07:27:36;;;;;;;22.57;16.80;;;9.80;93.20;;;;;;779265;181;26458;-85
2023/11/23 07:30:06;;;;;;;25.17;16.90;;;9.80;93.20;;;;;;761778;182;26504;-85
2023/11/23 07:32:30;;;;;;;23.83;16.93;;;9.80;93.10;;;;;;761753;187;27062;-84
2023/11/23 07:34:56;;;;;;;24.77;16.90;;;9.80;93.10;;;;;;761417;187;26516;-87
2023/11/23 07:37:23;;;;;;;25.47;16.07;;;9.90;93.00;;;;;;757179;188;27086;-85
2023/11/23 07:39:51;;;;;;;22.73;16.13;;;9.90;93.00;;;;;;759429;189;26518;-85
2023/11/23 07:42:21;;;;;;;25.43;16.33;;;9.90;93.00;;;;;;757927;187;26504;-85
2023/11/23 07:44:47;;;;;;;21.50;16.00;;;9.90;93.20;;;;;;756293;187;26511;-84
2023/11/23 07:47:16;;;;;;;20.50;15.57;;;9.90;92.80;;;;;;759746;187;27166;-85
2023/11/23 07:49:41;;;;;;;25.13;16.50;;;10.00;92.30;;;;;;757662;187;26511;-86
2023/11/23 07:52:08;;;;;;;21.83;15.50;;;10.00;92.20;;;;;;768624;184;26516;-86
2023/11/23 07:54:35;;;;;;;21.93;15.83;;;10.00;92.10;;;;;;772352;184;26486;-86
2023/11/23 07:57:02;;;;;;;23.03;16.40;;;10.00;92.10;;;;;;767167;186;26505;-86
2023/11/23 07:59:29;;;;;;;26.87;16.30;;;10.10;92.10;;;;;;769780;182;26500;-86
2023/11/23 08:01:56;;;;;;;24.20;15.93;;;10.10;92.10;;;;;;775011;184;26475;-86
2023/11/23 08:04:21;;;;;;;22.17;14.53;;;10.20;92.10;;;;;;774116;183;26497;-88
2023/11/23 08:06:48;;;;;;;27.50;15.53;;;10.20;91.80;;;;;;774816;183;26508;-86
2023/11/23 08:09:19;;;;;;;22.50;16.33;;;10.20;91.80;;;;;;775146;183;26502;-85
2023/11/23 08:11:52;;;;;;;27.17;16.30;;;10.20;92.00;;;;;;774482;185;26487;-86
2023/11/23 08:14:44;;;;;;;26.60;15.30;;;10.20;91.80;;;;;;774804;183;26474;-86
2023/11/23 08:17:34;;;;;;;23.33;15.60;;;10.30;91.80;;;;;;776808;183;26481;-86
2023/11/23 08:20:26;;;;;;;23.07;14.63;;;10.30;91.70;;;;;;775205;182;26500;-86
2023/11/23 08:25:56;;;;;;;21.80;15.00;;;10.30;91.70;;;;;;772145;184;26460;-79
2023/11/23 08:28:25;;;;;;;22.40;15.57;;;10.40;91.70;;;;;;766315;182;26494;-79
2023/11/23 08:30:52;;;;;;;23.13;15.53;;;10.50;91.50;;;;;;771754;182;27034;-79
2023/11/23 08:33:28;;;;;;;22.53;15.37;;;10.70;91.70;;;;;;776333;184;26472;-86
2023/11/23 08:35:54;;;;;;;25.80;15.80;;;10.50;91.10;;;;;;757655;186;26533;-85
2023/11/23 08:38:31;;;;;;;22.23;14.70;;;10.50;91.30;;;;;;750475;185;27080;-85
2023/11/23 08:41:00;;;;;;;21.83;15.37;;;10.50;91.20;;;;;;779180;183;26459;-85
2023/11/23 08:43:25;;;;;;;24.83;15.10;;;10.50;91.10;;;;;;778550;183;26496;-86
2023/11/23 08:45:51;;;;;;;21.93;14.97;;;10.50;91.30;;;;;;778613;184;26496;-85
2023/11/23 08:48:26;;;;;;;19.43;14.87;;;10.60;91.60;;;;;;778500;184;26473;-85
2023/11/23 08:50:53;;;;;;;21.17;14.23;;;10.60;91.50;;;;;;778525;185;27058;-85
2023/11/23 08:53:20;;;;;;;20.70;14.00;;;10.50;91.20;;;;;;778574;184;26465;-85
2023/11/23 08:55:48;;;;;;;21.60;15.17;;;10.60;91.30;;;;;;778655;185;26996;-86
2023/11/23 08:58:13;;;;;;;22.47;14.23;;;10.60;91.30;;;;;;778498;185;26457;-87
2023/11/23 09:00:40;;;;;;;20.47;13.87;;;10.60;91.30;;;;;;778390;184;27032;-87
2023/11/23 09:03:08;;;;;;;20.07;14.17;;;10.60;91.20;;;;;;778004;183;26449;-85
2023/11/23 09:05:37;;;;;;;22.53;14.57;;;10.60;91.40;;;;;;778429;185;26433;-85
2023/11/23 09:08:07;;;;;;;23.13;14.80;;;10.60;91.20;;;;;;778030;180;26446;-85
2023/11/23 09:10:42;;;;;;;20.90;15.27;;;10.70;91.20;;;;;;794093;171;26532;-85
2023/11/23 09:13:27;;;;;;;21.27;14.07;;;10.70;91.30;;;;;;778606;181;26603;-85
2023/11/23 09:16:01;;;;;;;18.77;13.93;;;10.70;91.20;;;;;;780110;183;26461;-85
2023/11/23 09:18:51;;;;;;;19.43;13.77;;;10.70;91.10;;;;;;775093;181;26626;-85
2023/11/23 09:21:27;;;;;;;24.77;14.00;;;10.70;91.00;;;;;;777085;181;27054;-85
2023/11/23 09:32:28;;;;;;;20.63;14.53;;;10.90;91.10;;;;;;737873;174;26547;-86
2023/11/23 09:35:26;;;;;;;22.07;14.60;;;11.00;91.20;;;;;;751539;189;26510;-85
2023/11/23 09:41:02;;;;;;;25.27;16.90;;;11.00;90.90;;;;;;762094;185;27054;-85
2023/11/23 09:43:33;;;;;;;24.10;16.10;;;11.00;90.70;;;;;;761667;186;26600;-84
2023/11/23 09:46:00;;;;;;;20.50;13.37;;;11.00;90.70;;;;;;757856;186;27084;-84
2023/11/23 09:48:26;;;;;;;20.43;14.47;;;11.00;90.50;;;;;;756664;186;26496;-88
2023/11/23 09:50:59;;;;;;;28.10;17.50;;;10.90;90.60;;;;;;761950;184;26569;-84
2023/11/23 09:53:36;;;;;;;20.40;13.63;;;11.00;90.60;;;;;;762359;186;27108;-85
2023/11/23 09:56:39;;;;;;;;;;;;;;;;;;;;;
2023/11/23 09:59:00;;;;;;;17.70;13.70;;;10.90;90.40;;;;;;758974;186;27124;-84
2023/11/23 10:01:28;;;;;;;19.20;14.00;;;11.00;90.60;;;;;;757802;186;27259;-84
2023/11/23 10:03:55;;;;;;;19.37;13.73;;;11.00;90.50;;;;;;758431;186;26520;-88
2023/11/23 10:06:23;;;;;;;17.47;13.33;;;11.10;90.70;;;;;;755724;186;27067;-85
2023/11/23 10:08:53;;;;;;;20.77;14.00;;;11.20;90.10;;;;;;744949;186;26518;-86
2023/11/23 10:11:20;;;;;;;18.27;13.37;;;11.20;90.20;;;;;;757575;186;27141;-85
2023/11/23 10:13:49;;;;;;;20.13;14.00;;;11.20;89.90;;;;;;764327;186;26553;-85
2023/11/23 10:16:25;;;;;;;15.80;11.97;;;11.20;90.20;;;;;;759510;186;26495;-88
2023/11/23 10:18:58;;;;;;;20.73;14.77;;;11.20;90.00;;;;;;761806;186;26478;-87
2023/11/23 10:21:28;;;;;;;13.90;12.40;;;11.30;90.10;;;;;;760038;185;27108;-88
2023/11/23 10:24:23;;;;;;;17.03;12.50;;;11.30;89.70;;;;;;759793;186;26526;-86
2023/11/23 10:26:55;;;;;;;18.87;13.50;;;11.30;90.00;;;;;;760090;185;26528;-85
2023/11/23 10:29:35;;;;;;;25.33;17.30;;;11.20;89.70;;;;;;746458;192;26607;-86
2023/11/23 10:32:02;;;;;;;20.03;14.63;;;11.30;90.20;;;;;;759863;187;26570;-85
2023/11/23 10:34:43;;;;;;;24.90;17.03;;;11.50;89.50;;;;;;746993;191;26519;-85
2023/11/23 10:37:19;;;;;;;61.33;35.70;;;11.50;88.80;;;;;;761420;187;27575;-88
2023/11/23 10:39:50;;;;;;;64.77;34.47;;;11.50;89.50;;;;;;761552;187;26521;-85
2023/11/23 10:42:32;;;;;;;44.70;27.07;;;11.50;88.90;;;;;;760083;183;26536;-84
2023/11/23 10:45:13;;;;;;;42.03;27.93;;;11.40;89.50;;;;;;752555;190;26544;-85
2023/11/23 10:47:44;;;;;;;30.60;19.87;;;11.30;89.40;;;;;;754653;189;27168;-85
2023/11/23 10:50:18;;;;;;;17.40;13.03;;;11.30;89.90;;;;;;754122;190;26507;-86
2023/11/23 10:53:01;;;;;;;19.03;13.73;;;11.30;90.10;;;;;;764076;177;27067;-85
2023/11/23 10:58:24;;;;;;;27.63;18.33;;;11.30;90.00;;;;;;756750;188;27185;-86
2023/11/23 11:00:51;;;;;;;26.83;14.60;;;11.30;90.00;;;;;;756908;188;27047;-89
2023/11/23 11:03:22;;;;;;;23.40;14.50;;;11.30;90.10;;;;;;758701;185;26524;-86
2023/11/23 11:05:55;;;;;;;20.43;12.00;;;11.30;90.10;;;;;;767166;179;26511;-88
2023/11/23 11:08:30;;;;;;;18.67;11.27;;;11.30;90.10;;;;;;777706;183;26477;-85
2023/11/23 11:10:55;;;;;;;25.17;16.13;;;11.40;90.30;;;;;;799229;178;26442;-85
2023/11/23 11:13:28;;;;;;;45.20;23.53;;;11.30;90.30;;;;;;776555;179;26677;-86
2023/11/23 11:15:56;;;;;;;32.87;18.53;;;11.30;90.30;;;;;;765837;182;26575;-85
2023/11/23 11:18:29;;;;;;;43.83;23.43;;;11.30;90.50;;;;;;776390;181;26489;-86
2023/11/23 11:26:41;;;;;;;29.10;18.03;;;11.40;90.20;;;;;;778548;175;32161;-88
2023/11/23 11:29:15;;;;;;;32.83;18.30;;;11.40;90.20;;;;;;777542;184;26530;-88
2023/11/23 11:31:48;;;;;;;22.23;13.77;;;11.40;90.70;;;;;;777893;184;26496;-85
2023/11/23 11:34:38;;;;;;;17.43;11.17;;;11.40;90.20;;;;;;779312;184;26534;-86
2023/11/23 11:37:09;;;;;;;33.47;18.57;;;11.40;90.30;;;;;;776965;184;26501;-86
2023/11/23 11:39:41;;;;;;;21.40;13.30;;;11.40;90.30;;;;;;792314;172;26511;-86
2023/11/23 11:45:23;;;;;;;;;;;;;;;;;;;;;
2023/11/23 11:47:59;;;;;;;40.20;23.33;;;11.60;90.10;;;;;;796687;177;26430;-91
2023/11/23 11:50:45;;;;;;;56.80;30.30;;;11.60;90.10;;;;;;787051;177;27095;-86
2023/11/23 12:02:33;;;;;;;87.60;47.63;;;11.60;89.90;;;;;;740432;173;26519;-86
2023/11/23 12:05:11;;;;;;;84.77;44.43;;;11.70;90.10;;;;;;770233;183;26484;-86
2023/11/23 12:07:41;;;;;;;44.57;28.17;;;11.70;90.00;;;;;;779925;183;26529;-87
2023/11/23 12:12:58;;;;;;;26.93;16.63;;;11.70;90.00;;;;;;779034;184;26460;-85
2023/11/23 12:15:42;;;;;;;27.67;18.17;;;11.60;89.90;;;;;;779036;183;26405;-86
2023/11/23 12:18:14;;;;;;;17.27;12.53;;;11.70;89.80;;;;;;778576;184;26387;-85
2023/11/23 12:20:46;;;;;;;13.53;9.40;;;11.70;89.70;;;;;;778336;184;26976;-86
2023/11/23 12:23:16;;;;;;;17.57;11.53;;;11.70;90.00;;;;;;778600;184;26471;-87
2023/11/23 12:25:51;;;;;;;50.47;32.30;;;11.70;89.70;;;;;;778531;184;26491;-84
2023/11/23 12:28:20;;;;;;;104.83;56.40;;;11.70;90.00;;;;;;778272;184;26403;-84
2023/11/23 12:30:55;;;;;;;56.43;29.63;;;11.70;90.20;;;;;;778171;184;26430;-84
2023/11/23 12:33:21;;;;;;;89.07;47.43;;;11.70;89.40;;;;;;767340;184;26403;-85
2023/11/23 12:35:54;;;;;;;47.17;27.80;;;11.80;89.50;;;;;;778126;184;26402;-84
2023/11/23 12:38:24;;;;;;;23.20;13.90;;;11.80;89.80;;;;;;778091;185;26399;-84
2023/11/23 12:40:54;;;;;;;19.30;12.07;;;11.80;89.20;;;;;;778012;185;26415;-86
2023/11/23 12:43:27;;;;;;;13.07;9.97;;;11.70;89.30;;;;;;778022;184;26399;-84
2023/11/23 12:45:58;;;;;;;33.00;17.87;;;11.80;89.70;;;;;;778029;184;27010;-85
2023/11/23 12:48:30;;;;;;;27.20;16.30;;;11.70;89.40;;;;;;778118;185;26432;-84
2023/11/23 12:51:00;;;;;;;17.30;12.50;;;11.80;89.30;;;;;;778027;181;26432;-86
2023/11/23 12:53:32;;;;;;;32.73;19.00;;;11.70;89.60;;;;;;778020;185;26437;-85
2023/11/23 12:56:02;;;;;;;21.50;14.07;;;11.80;89.70;;;;;;778025;185;26403;-84
2023/11/23 12:58:40;;;;;;;31.10;20.50;;;11.80;89.20;;;;;;777794;185;26406;-84
2023/11/23 13:01:07;;;;;;;22.43;14.30;;;11.80;89.80;;;;;;788757;178;26519;-84
2023/11/23 13:03:37;;;;;;;19.50;11.27;;;11.80;89.70;;;;;;788146;181;26484;-84
2023/11/23 13:06:12;;;;;;;35.23;21.43;;;11.90;89.90;;;;;;788367;182;26576;-85
2023/11/23 13:08:37;;;;;;;49.73;28.23;;;11.90;89.10;;;;;;787802;182;26537;-84
2023/11/23 13:11:09;;;;;;;19.60;12.97;;;11.90;88.90;;;;;;779677;182;26460;-84
2023/11/23 13:13:42;;;;;;;19.67;11.60;;;12.00;89.30;;;;;;777413;181;26446;-86
2023/11/23 13:16:27;;;;;;;24.03;14.57;;;12.00;88.80;;;;;;774765;184;26466;-86
2023/11/23 13:19:00;;;;;;;42.03;23.30;;;12.00;88.70;;;;;;774267;182;26533;-87
2023/11/23 13:21:30;;;;;;;42.63;21.83;;;12.10;88.90;;;;;;777532;183;26528;-85
2023/11/23 13:24:04;;;;;;;11.03;7.83;;;12.10;88.70;;;;;;776736;183;27034;-84
2023/11/23 13:26:34;;;;;;;14.80;10.00;;;12.10;88.50;;;;;;778201;183;26983;-84
2023/11/23 13:29:06;;;;;;;25.83;17.37;;;12.00;88.70;;;;;;769561;182;27125;-83
2023/11/23 13:31:35;;;;;;;11.97;8.13;;;12.10;88.90;;;;;;777017;183;26454;-84
2023/11/23 13:34:08;;;;;;;36.07;20.70;;;12.10;88.40;;;;;;779783;183;26487;-84
2023/11/23 13:36:39;;;;;;;21.53;11.60;;;12.10;89.20;;;;;;781522;181;27023;-84